Flight Track Log - Related Links

Times and Time Zones

All times are in EDT time to prevent confusion due to time zone crossing. See the DAL3672 flight status page for this flight to view local times or setup timezone preferences in your user account.

Time Position Orientation Groundspeed Altitude Reporting Facility
EDT Latitude Longitude Course Direction KTS MPH feet Rate Location/Type
Sat 10:35:21 AM 42.1678 -83.3511 94° East 200 230 3,300  Level FAA TRACON SMA TRACON (SMA)
Sat 10:35:41 AM 42.1472 -83.3472 172° South 206 237 4,400 2,550 Climbing FAA TRACON SMA TRACON (SMA)
Sat 10:36:01 AM 42.1250 -83.3439 174° South 238 274 5,000 2,100 Climbing FAA TRACON SMA TRACON (SMA)
Sat 10:36:21 AM 42.1042 -83.3339 160° South 268 308 5,800 2,100 Climbing FAA TRACON SMA TRACON (SMA)
Sat 10:36:41 AM 42.0883 -83.3144 138° Southeast 279 321 6,400 2,550 Climbing FAA TRACON SMA TRACON (SMA)
Sat 10:37:00 AM 42.2947 -82.8414 74° East  Level FlightAware Approximate
Sat 10:37:01 AM 42.0808 -83.2717 103° East 296 341 7,500  Level FAA TRACON SMA TRACON (SMA)
Sat 10:37:21 AM 42.0867 -83.2381 77° East 301 346 8,200 2,250 Climbing FAA TRACON SMA TRACON (SMA)
Sat 10:37:41 AM 42.0947 -83.2094 69° East 309 356 9,000 2,700 Climbing FAA TRACON SMA TRACON (SMA)
Sat 10:38:00 AM 42.3228 -82.6685 78° East  Level FlightAware Approximate
Sat 10:38:01 AM 42.1111 -83.1675 62° Northeast 306 352 10,000  Level FAA TRACON SMA TRACON (SMA)
Sat 10:38:21 AM 42.1233 -83.1350 63° Northeast 319 367 10,400 1,200 Climbing FAA TRACON SMA TRACON (SMA)
Sat 10:38:41 AM 42.1394 -83.0903 64° Northeast 359 413 10,800 1,500 Climbing FAA TRACON SMA TRACON (SMA)
Sat 10:39:00 AM 42.3481 -82.4950 77° East  Level FlightAware Approximate
Sat 10:39:01 AM 42.1531 -83.0536 63° Northeast 359 413 11,400  Level FAA TRACON SMA TRACON (SMA)
Sat 10:39:21 AM 42.1667 -83.0161 64° Northeast 363 418 12,000 2,100 Climbing FAA TRACON SMA TRACON (SMA)
Sat 10:39:41 AM 42.1842 -82.9686 64° Northeast 369 425 12,800 2,250 Climbing FAA TRACON SMA TRACON (SMA)
Sat 10:40:00 AM 42.3598 -82.3253 94° East  Level FlightAware Approximate
Sat 10:40:01 AM 42.1981 -82.9297 64° Northeast 373 429 13,500  Level FAA TRACON SMA TRACON (SMA)
Sat 10:40:22 AM 42.2125 -82.8906 64° Northeast 375 432 14,000 1,950 Climbing FAA TRACON SMA TRACON (SMA)
Sat 10:40:41 AM 42.2303 -82.8414 64° Northeast 379 436 14,800 1,950 Climbing FAA TRACON SMA TRACON (SMA)
Sat 10:41:02 AM 42.2439 -82.8047 63° Northeast 381 438 15,300 1,610 Climbing FAA TRACON SMA TRACON (SMA)
Sat 10:41:22 AM 42.2589 -82.7608 65° Northeast 387 445 15,900 1,950 Climbing FAA TRACON SMA TRACON (SMA)
Sat 10:41:42 AM 42.2775 -82.7097 64° Northeast 392 451 16,600 1,650 Climbing FAA TRACON SMA TRACON (SMA)
Sat 10:42:02 AM 42.2914 -82.6714 64° Northeast 394 453 17,000 1,650 Climbing FAA TRACON SMA TRACON (SMA)
Sat 10:42:22 AM 42.3072 -82.6269 64° Northeast 398 458 17,700 1,692 Climbing FAA TRACON SMA TRACON (SMA)
Sat 10:42:41 AM 42.3258 -82.5747 64° Northeast 400 460 18,100 1,077 Climbing FAA TRACON SMA TRACON (SMA)
Sat 10:43:01 AM 42.3417 -82.5372 60° Northeast 404 465 18,400 1,200 Climbing FAA TRACON SMA TRACON (SMA)
Sat 10:43:21 AM 42.3575 -82.4897 66° East 411 473 18,900 1,650 Climbing FAA TRACON SMA TRACON (SMA)
Sat 10:43:41 AM 42.3675 -82.4306 77° East 416 479 19,500 1,350 Climbing FAA TRACON SMA TRACON (SMA)
Sat 10:44:01 AM 42.3672 -82.3881 90° East 427 491 19,800 1,050 Climbing FAA TRACON SMA TRACON (SMA)
Sat 10:44:21 AM 42.3644 -82.3325 94° East 426 490 20,200 1,350 Climbing FAA TRACON SMA TRACON (SMA)
Sat 10:44:41 AM 42.3619 -82.2703 93° East 429 494 20,700 900 Climbing FAA TRACON SMA TRACON (SMA)
Sat 10:45:21 AM 42.3594 -82.1828 92° East 433 498 21,100 400 Climbing FAA TRACON SMA TRACON (SMA)
Sat 10:45:41 AM 42.3594 -82.1828 20° North 433 498 21,100  Level FAA TRACON SMA TRACON (SMA)
Sat 10:46:01 AM 42.3594 -82.1828 20° North 433 498 21,100 1,031 Level FAA TRACON SMA TRACON (SMA)
Sat 10:46:45 AM 42.3461 -81.9206 94° East 457 526 22,200 1,096 Climbing Cleveland Center
Sat 10:47:45 AM 42.3394 -81.7658 93° East 462 532 23,000 900 Climbing Cleveland Center
Sat 10:48:45 AM 42.3308 -81.5914 94° East 462 532 24,000 1,050 Climbing Cleveland Center
Sat 10:49:45 AM 42.3239 -81.4117 93° East 462 532 25,100 800 Climbing Cleveland Center
Sat 10:50:45 AM 42.3144 -81.2347 94° East 467 537 25,600 500 Climbing Cleveland Center
Sat 10:51:45 AM 42.3050 -81.0547 94° East 472 543 26,100 500 Climbing Cleveland Center
Sat 10:52:45 AM 42.2931 -80.8525 94° East 479 551 26,600 500 Climbing Cleveland Center
Sat 10:53:45 AM 42.2850 -80.6675 93° East 485 558 27,100 500 Climbing Cleveland Center
Sat 10:54:45 AM 42.2872 -80.4822 89° East 493 567 27,600 500 Climbing Cleveland Center
Sat 10:55:45 AM 42.3036 -80.2939 83° East 503 579 28,100 550 Climbing Cleveland Center
Sat 10:56:45 AM 42.3217 -80.1031 83° East 503 579 28,700 500 Climbing Cleveland Center
Sat 10:57:45 AM 42.3394 -79.9314 82° East 503 579 29,100 450 Climbing Cleveland Center
Sat 10:58:45 AM 42.3572 -79.7458 83° East 503 579 29,600 500 Climbing Cleveland Center
Sat 10:59:45 AM 42.3744 -79.5544 83° East 503 579 30,100 500 Climbing Cleveland Center
Sat 11:00:45 AM 42.3914 -79.3658 83° East 503 579 30,600 450 Climbing Cleveland Center
Sat 11:01:45 AM 42.4078 -79.1772 83° East 503 579 31,000 200 Climbing Cleveland Center
Sat 11:02:45 AM 42.4242 -78.9883 83° East 503 579 31,000  Level Cleveland Center
Sat 11:03:45 AM 42.4419 -78.7797 83° East 503 579 31,000  Level Cleveland Center
Sat 11:04:45 AM 42.4578 -78.5964 83° East 503 579 31,000  Level Cleveland Center
Sat 11:05:45 AM 42.4731 -78.4100 84° East 497 572 31,000  Level Cleveland Center
Sat 11:06:45 AM 42.4886 -78.2378 83° East 503 579 31,000  Level Cleveland Center
Sat 11:07:45 AM 42.5011 -78.0514 85° East 503 579 31,000  Level Cleveland Center
Sat 11:08:45 AM 42.5158 -77.8647 84° East 503 579 31,000  Level Cleveland Center
Sat 11:09:45 AM 42.5336 -77.6611 83° East 503 579 31,000  Level Cleveland Center
Sat 11:10:45 AM 42.5411 -77.4692 87° East 503 579 31,000  Level Cleveland Center
Sat 11:11:45 AM 42.5572 -77.2992 83° East 503 579 31,000  Level Cleveland Center
Sat 11:12:45 AM 42.5683 -77.1069 85° East 503 579 31,000  Level Cleveland Center
Sat 11:14:24 AM 42.5931 -76.7700 84° East 495 570 31,000  Level Boston Center
Sat 11:15:24 AM 42.6044 -76.5731 85° East 508 585 31,000  Level Boston Center
Sat 11:16:24 AM 42.6178 -76.3764 85° East 513 590 31,000  Level Boston Center
Sat 11:17:24 AM 42.6300 -76.2022 84° East 513 590 31,000  Level Boston Center
Sat 11:18:24 AM 42.6403 -76.0108 86° East 513 590 31,000  Level Boston Center
Sat 11:19:24 AM 42.6503 -75.8164 86° East 513 590 31,000  Level Boston Center
Sat 11:20:24 AM 42.6603 -75.6194 86° East 513 590 31,000  Level Boston Center
Sat 11:21:24 AM 42.6739 -75.4253 84° East 513 590 31,000 -200 Level Boston Center
Sat 11:22:24 AM 42.6831 -75.2308 86° East 513 590 30,600 -700 Descending Boston Center
Sat 11:23:24 AM 42.6939 -75.0333 86° East 513 590 29,600 -800 Descending Boston Center
Sat 11:24:24 AM 42.7025 -74.8361 87° East 513 590 29,000 -300 Descending Boston Center
Sat 11:25:24 AM 42.7125 -74.6414 86° East 513 590 29,000 -50 Level Boston Center
Sat 11:26:24 AM 42.7208 -74.4242 87° East 518 596 28,900 -700 Descending Boston Center
Sat 11:27:24 AM 42.7281 -74.2319 87° East 518 596 27,600 -1,750 Descending Boston Center
Sat 11:28:24 AM 42.7353 -74.0344 87° East 518 596 25,400 -2,350 Descending Boston Center
Sat 11:29:24 AM 42.7439 -73.8422 86° East 512 589 22,900 -2,350 Descending Boston Center
Sat 11:30:24 AM 42.7522 -73.6728 86° East 504 580 20,700 -1,900 Descending Boston Center
Sat 11:31:24 AM 42.7603 -73.4750 87° East 491 565 19,100 -850 Descending Boston Center
Sat 11:32:24 AM 42.7639 -73.2969 88° East 477 549 19,000 -50 Descending Boston Center
Sat 11:33:24 AM 42.7692 -73.1331 87° East 471 542 19,000 -50 Level Boston Center
Sat 11:34:24 AM 42.7786 -72.9550 86° East 471 542 18,900 -950 Descending Boston Center
Sat 11:35:24 AM 42.7833 -72.7597 88° East 471 542 17,100 -1,800 Descending Boston Center
Sat 11:36:24 AM 42.7881 -72.5928 88° East 458 527 15,300 -1,800 Descending Boston Center
Sat 11:37:24 AM 42.7922 -72.4344 88° East 433 498 13,500 -1,650 Descending Boston Center
Sat 11:38:24 AM 42.7942 -72.2931 89° East 401 461 12,000 -1,400 Descending Boston Center
Sat 11:39:24 AM 42.8022 -72.1628 85° East 363 418 10,700 -1,600 Descending Boston Center
Sat 11:40:24 AM 42.8122 -72.0411 84° East 332 382 8,800 -1,750 Descending Boston Center
Sat 11:41:24 AM 42.8222 -71.9192 84° East 326 375 7,200 -1,600 Descending Boston Center
Sat 11:42:24 AM 42.8156 -71.8089 95° East 302 348 5,600 -1,500 Descending Boston Center
Sat 11:43:24 AM 42.8003 -71.7044 101° East 284 327 4,200 -1,100 Descending Boston Center
Sat 11:44:24 AM 42.7828 -71.6083 104° East 268 308 3,400 -600 Descending Boston Center
Sat 11:45:24 AM 42.7803 -71.5292 92° East 243 280 3,000 -400 Descending Boston Center
Sat 11:46:24 AM 42.7961 -71.4383 77° East 225 259 2,600 -400 Descending Boston Center

Login

Don't have an account? Register now (free) for customized features, flight alerts, and more!